sensor_id;sensor_type;location;lat;lon;timestamp;temperature;humidity
18932;DHT22;9598;50.954;3.112;2022-12-08T00:01:29;5.70;99.90
18932;DHT22;9598;50.954;3.112;2022-12-08T00:06:33;5.70;99.90
18932;DHT22;9598;50.954;3.112;2022-12-08T00:11:55;5.70;99.90
18932;DHT22;9598;50.954;3.112;2022-12-08T00:16:59;5.70;99.90
18932;DHT22;9598;50.954;3.112;2022-12-08T00:22:03;5.70;99.90
18932;DHT22;9598;50.954;3.112;2022-12-08T00:27:06;5.70;99.90
18932;DHT22;9598;50.954;3.112;2022-12-08T00:32:10;5.60;99.90
18932;DHT22;9598;50.954;3.112;2022-12-08T00:37:12;5.60;99.90
18932;DHT22;9598;50.954;3.112;2022-12-08T00:42:14;5.60;99.90
18932;DHT22;9598;50.954;3.112;2022-12-08T00:47:18;5.50;99.90
18932;DHT22;9598;50.954;3.112;2022-12-08T00:52:20;5.50;99.90
18932;DHT22;9598;50.954;3.112;2022-12-08T00:57:22;5.50;99.90
18932;DHT22;9598;50.954;3.112;2022-12-08T01:02:25;5.50;99.90
18932;DHT22;9598;50.954;3.112;2022-12-08T01:07:27;5.50;99.90
18932;DHT22;9598;50.954;3.112;2022-12-08T01:12:29;5.50;99.90
18932;DHT22;9598;50.954;3.112;2022-12-08T01:17:33;5.50;99.90
18932;DHT22;9598;50.954;3.112;2022-12-08T01:22:35;5.40;99.90
18932;DHT22;9598;50.954;3.112;2022-12-08T01:27:37;5.40;99.90
18932;DHT22;9598;50.954;3.112;2022-12-08T01:32:40;5.40;99.90
18932;DHT22;9598;50.954;3.112;2022-12-08T01:37:42;5.40;99.90
18932;DHT22;9598;50.954;3.112;2022-12-08T01:42:44;5.40;99.90
18932;DHT22;9598;50.954;3.112;2022-12-08T01:47:50;5.40;99.90
18932;DHT22;9598;50.954;3.112;2022-12-08T01:52:55;5.40;99.90
18932;DHT22;9598;50.954;3.112;2022-12-08T01:58:04;5.30;99.90
18932;DHT22;9598;50.954;3.112;2022-12-08T02:03:12;5.30;99.90
18932;DHT22;9598;50.954;3.112;2022-12-08T02:08:15;5.30;99.90
18932;DHT22;9598;50.954;3.112;2022-12-08T02:13:19;5.30;99.90
18932;DHT22;9598;50.954;3.112;2022-12-08T02:18:35;5.20;99.90
18932;DHT22;9598;50.954;3.112;2022-12-08T02:23:49;5.20;99.90
18932;DHT22;9598;50.954;3.112;2022-12-08T02:34:27;5.10;99.90
18932;DHT22;9598;50.954;3.112;2022-12-08T02:39:36;5.10;99.90
18932;DHT22;9598;50.954;3.112;2022-12-08T02:44:47;4.90;99.90
18932;DHT22;9598;50.954;3.112;2022-12-08T02:49:55;4.90;99.90
18932;DHT22;9598;50.954;3.112;2022-12-08T02:55:00;4.90;99.90
18932;DHT22;9598;50.954;3.112;2022-12-08T03:00:07;4.80;99.90
18932;DHT22;9598;50.954;3.112;2022-12-08T03:05:30;4.80;99.90
18932;DHT22;9598;50.954;3.112;2022-12-08T03:10:39;4.90;99.90
18932;DHT22;9598;50.954;3.112;2022-12-08T03:15:45;4.90;99.90
18932;DHT22;9598;50.954;3.112;2022-12-08T03:20:51;4.90;99.90
18932;DHT22;9598;50.954;3.112;2022-12-08T03:25:57;4.90;99.90
18932;DHT22;9598;50.954;3.112;2022-12-08T03:31:05;5.00;99.90
18932;DHT22;9598;50.954;3.112;2022-12-08T03:36:10;5.00;99.90
18932;DHT22;9598;50.954;3.112;2022-12-08T03:41:13;5.00;99.90
18932;DHT22;9598;50.954;3.112;2022-12-08T03:46:23;5.10;99.90
18932;DHT22;9598;50.954;3.112;2022-12-08T03:51:27;5.10;99.90
18932;DHT22;9598;50.954;3.112;2022-12-08T03:56:31;5.10;99.90
18932;DHT22;9598;50.954;3.112;2022-12-08T04:01:33;5.00;99.90
18932;DHT22;9598;50.954;3.112;2022-12-08T04:06:37;5.10;99.90
18932;DHT22;9598;50.954;3.112;2022-12-08T04:11:39;5.10;99.90
18932;DHT22;9598;50.954;3.112;2022-12-08T04:16:41;5.10;99.90
18932;DHT22;9598;50.954;3.112;2022-12-08T04:21:44;5.20;99.90
18932;DHT22;9598;50.954;3.112;2022-12-08T04:26:46;5.20;99.90
18932;DHT22;9598;50.954;3.112;2022-12-08T04:31:49;5.20;99.90
18932;DHT22;9598;50.954;3.112;2022-12-08T04:36:52;5.20;99.90
18932;DHT22;9598;50.954;3.112;2022-12-08T04:41:54;5.20;99.90
18932;DHT22;9598;50.954;3.112;2022-12-08T04:46:57;5.20;99.90
18932;DHT22;9598;50.954;3.112;2022-12-08T04:52:00;5.30;99.90
18932;DHT22;9598;50.954;3.112;2022-12-08T04:57:02;5.30;99.90
18932;DHT22;9598;50.954;3.112;2022-12-08T05:02:05;5.30;99.90
18932;DHT22;9598;50.954;3.112;2022-12-08T05:07:08;5.30;99.90
18932;DHT22;9598;50.954;3.112;2022-12-08T05:12:10;5.20;99.90
18932;DHT22;9598;50.954;3.112;2022-12-08T05:17:12;5.20;99.90
18932;DHT22;9598;50.954;3.112;2022-12-08T05:22:16;5.20;99.90
18932;DHT22;9598;50.954;3.112;2022-12-08T05:27:18;5.20;99.90
18932;DHT22;9598;50.954;3.112;2022-12-08T05:32:20;5.20;99.90
18932;DHT22;9598;50.954;3.112;2022-12-08T05:37:23;5.20;99.90
18932;DHT22;9598;50.954;3.112;2022-12-08T05:42:25;5.20;99.90
18932;DHT22;9598;50.954;3.112;2022-12-08T05:47:27;5.20;99.90
18932;DHT22;9598;50.954;3.112;2022-12-08T05:52:31;5.30;99.90
18932;DHT22;9598;50.954;3.112;2022-12-08T05:57:33;5.20;99.90
18932;DHT22;9598;50.954;3.112;2022-12-08T06:02:35;5.20;99.90
18932;DHT22;9598;50.954;3.112;2022-12-08T06:07:39;5.30;99.90
18932;DHT22;9598;50.954;3.112;2022-12-08T06:12:41;5.20;99.90
18932;DHT22;9598;50.954;3.112;2022-12-08T06:17:43;5.30;99.90
18932;DHT22;9598;50.954;3.112;2022-12-08T06:22:47;5.20;99.90
18932;DHT22;9598;50.954;3.112;2022-12-08T06:27:49;5.30;99.90
18932;DHT22;9598;50.954;3.112;2022-12-08T06:32:51;5.30;99.90
18932;DHT22;9598;50.954;3.112;2022-12-08T06:37:54;5.30;99.90
18932;DHT22;9598;50.954;3.112;2022-12-08T06:42:56;5.30;99.90
18932;DHT22;9598;50.954;3.112;2022-12-08T06:48:00;5.30;99.90
18932;DHT22;9598;50.954;3.112;2022-12-08T06:53:03;5.40;99.90
18932;DHT22;9598;50.954;3.112;2022-12-08T06:58:06;5.40;99.90
18932;DHT22;9598;50.954;3.112;2022-12-08T07:03:09;5.40;99.90
18932;DHT22;9598;50.954;3.112;2022-12-08T07:08:13;5.40;99.90
18932;DHT22;9598;50.954;3.112;2022-12-08T07:13:15;5.50;99.90
18932;DHT22;9598;50.954;3.112;2022-12-08T07:18:17;5.50;99.90
18932;DHT22;9598;50.954;3.112;2022-12-08T07:23:20;5.40;99.90
18932;DHT22;9598;50.954;3.112;2022-12-08T07:28:22;5.40;99.90
18932;DHT22;9598;50.954;3.112;2022-12-08T07:33:25;5.40;99.90
18932;DHT22;9598;50.954;3.112;2022-12-08T07:38:30;5.50;99.90
18932;DHT22;9598;50.954;3.112;2022-12-08T07:43:32;5.50;99.90
18932;DHT22;9598;50.954;3.112;2022-12-08T07:48:34;5.50;99.90
18932;DHT22;9598;50.954;3.112;2022-12-08T07:53:38;5.50;99.90
18932;DHT22;9598;50.954;3.112;2022-12-08T07:58:41;5.50;99.90
18932;DHT22;9598;50.954;3.112;2022-12-08T08:03:45;5.50;99.90
18932;DHT22;9598;50.954;3.112;2022-12-08T08:08:49;5.50;99.90
18932;DHT22;9598;50.954;3.112;2022-12-08T08:13:51;5.50;99.90
18932;DHT22;9598;50.954;3.112;2022-12-08T08:18:54;5.50;99.90
18932;DHT22;9598;50.954;3.112;2022-12-08T08:23:58;5.40;99.90
18932;DHT22;9598;50.954;3.112;2022-12-08T08:29:02;5.30;99.90
18932;DHT22;9598;50.954;3.112;2022-12-08T08:34:05;5.30;99.90
18932;DHT22;9598;50.954;3.112;2022-12-08T08:39:10;5.20;99.90
18932;DHT22;9598;50.954;3.112;2022-12-08T08:44:13;5.20;99.90
18932;DHT22;9598;50.954;3.112;2022-12-08T08:49:15;5.20;99.90
18932;DHT22;9598;50.954;3.112;2022-12-08T08:54:21;5.20;99.90
18932;DHT22;9598;50.954;3.112;2022-12-08T08:59:23;5.20;99.90
18932;DHT22;9598;50.954;3.112;2022-12-08T09:04:27;5.20;99.90
18932;DHT22;9598;50.954;3.112;2022-12-08T09:09:31;5.20;99.90
18932;DHT22;9598;50.954;3.112;2022-12-08T09:14:35;5.20;99.90
18932;DHT22;9598;50.954;3.112;2022-12-08T09:19:37;5.10;99.90
18932;DHT22;9598;50.954;3.112;2022-12-08T09:24:42;5.10;99.90
18932;DHT22;9598;50.954;3.112;2022-12-08T09:29:45;5.10;99.90
18932;DHT22;9598;50.954;3.112;2022-12-08T09:34:48;5.10;99.90
18932;DHT22;9598;50.954;3.112;2022-12-08T09:39:53;5.10;99.90
18932;DHT22;9598;50.954;3.112;2022-12-08T09:45:02;5.20;99.90
18932;DHT22;9598;50.954;3.112;2022-12-08T09:50:11;5.20;99.90
18932;DHT22;9598;50.954;3.112;2022-12-08T09:55:22;5.10;99.90
18932;DHT22;9598;50.954;3.112;2022-12-08T10:00:26;5.20;99.90
18932;DHT22;9598;50.954;3.112;2022-12-08T10:05:30;5.20;99.90
18932;DHT22;9598;50.954;3.112;2022-12-08T10:10:44;5.30;99.90
18932;DHT22;9598;50.954;3.112;2022-12-08T10:15:56;5.30;99.90
18932;DHT22;9598;50.954;3.112;2022-12-08T10:21:12;5.40;99.90
18932;DHT22;9598;50.954;3.112;2022-12-08T10:26:18;5.50;99.90
18932;DHT22;9598;50.954;3.112;2022-12-08T10:31:23;5.60;99.90
18932;DHT22;9598;50.954;3.112;2022-12-08T10:36:44;5.60;99.90
18932;DHT22;9598;50.954;3.112;2022-12-08T10:41:50;5.60;99.90
18932;DHT22;9598;50.954;3.112;2022-12-08T10:46:52;5.60;99.90
18932;DHT22;9598;50.954;3.112;2022-12-08T10:51:55;5.70;99.90
18932;DHT22;9598;50.954;3.112;2022-12-08T10:56:59;5.70;99.90
18932;DHT22;9598;50.954;3.112;2022-12-08T11:02:01;5.80;99.90
18932;DHT22;9598;50.954;3.112;2022-12-08T11:07:04;5.90;99.90
18932;DHT22;9598;50.954;3.112;2022-12-08T11:12:12;6.00;99.90
18932;DHT22;9598;50.954;3.112;2022-12-08T11:17:24;6.00;99.90
18932;DHT22;9598;50.954;3.112;2022-12-08T11:22:30;6.10;99.90
18932;DHT22;9598;50.954;3.112;2022-12-08T11:27:35;6.10;99.90
18932;DHT22;9598;50.954;3.112;2022-12-08T11:32:38;6.20;99.90
18932;DHT22;9598;50.954;3.112;2022-12-08T11:37:43;6.30;99.90
18932;DHT22;9598;50.954;3.112;2022-12-08T11:42:52;6.30;99.90
18932;DHT22;9598;50.954;3.112;2022-12-08T11:48:04;6.40;99.90
18932;DHT22;9598;50.954;3.112;2022-12-08T11:53:17;6.40;99.90
18932;DHT22;9598;50.954;3.112;2022-12-08T11:58:26;6.50;99.90
18932;DHT22;9598;50.954;3.112;2022-12-08T12:03:35;6.60;99.90
18932;DHT22;9598;50.954;3.112;2022-12-08T12:08:49;6.70;99.90
18932;DHT22;9598;50.954;3.112;2022-12-08T12:14:08;6.70;99.90
18932;DHT22;9598;50.954;3.112;2022-12-08T12:19:14;6.60;99.90
18932;DHT22;9598;50.954;3.112;2022-12-08T12:24:21;6.50;99.90
18932;DHT22;9598;50.954;3.112;2022-12-08T12:29:26;6.60;99.90
18932;DHT22;9598;50.954;3.112;2022-12-08T12:34:32;6.60;99.90
18932;DHT22;9598;50.954;3.112;2022-12-08T12:39:46;6.60;99.90
18932;DHT22;9598;50.954;3.112;2022-12-08T12:45:10;6.60;99.90
18932;DHT22;9598;50.954;3.112;2022-12-08T12:50:13;6.60;99.90
18932;DHT22;9598;50.954;3.112;2022-12-08T13:06:37;6.50;99.90
18932;DHT22;9598;50.954;3.112;2022-12-08T13:11:45;6.50;99.90
18932;DHT22;9598;50.954;3.112;2022-12-08T13:16:53;6.50;99.90
18932;DHT22;9598;50.954;3.112;2022-12-08T13:21:56;6.40;99.90
18932;DHT22;9598;50.954;3.112;2022-12-08T13:27:32;6.40;99.90
18932;DHT22;9598;50.954;3.112;2022-12-08T13:32:54;6.40;99.90
18932;DHT22;9598;50.954;3.112;2022-12-08T13:37:59;6.40;99.90
18932;DHT22;9598;50.954;3.112;2022-12-08T13:43:09;6.40;99.90
18932;DHT22;9598;50.954;3.112;2022-12-08T13:48:17;6.40;99.90
18932;DHT22;9598;50.954;3.112;2022-12-08T13:53:26;6.50;99.90
18932;DHT22;9598;50.954;3.112;2022-12-08T13:58:30;6.50;99.90
18932;DHT22;9598;50.954;3.112;2022-12-08T14:03:43;6.50;99.90
18932;DHT22;9598;50.954;3.112;2022-12-08T14:08:54;6.40;99.90
18932;DHT22;9598;50.954;3.112;2022-12-08T14:13:58;6.40;99.90
18932;DHT22;9598;50.954;3.112;2022-12-08T14:19:16;6.30;99.90
18932;DHT22;9598;50.954;3.112;2022-12-08T14:24:20;6.30;99.90
18932;DHT22;9598;50.954;3.112;2022-12-08T14:29:41;6.30;99.90
18932;DHT22;9598;50.954;3.112;2022-12-08T14:34:44;6.30;99.90
18932;DHT22;9598;50.954;3.112;2022-12-08T14:39:48;6.30;99.90
18932;DHT22;9598;50.954;3.112;2022-12-08T14:45:02;6.20;99.90
18932;DHT22;9598;50.954;3.112;2022-12-08T14:50:40;6.20;99.90
18932;DHT22;9598;50.954;3.112;2022-12-08T14:55:43;6.20;99.90
18932;DHT22;9598;50.954;3.112;2022-12-08T15:00:48;6.20;99.90
18932;DHT22;9598;50.954;3.112;2022-12-08T15:05:55;6.20;99.90
18932;DHT22;9598;50.954;3.112;2022-12-08T15:11:26;6.10;99.90
18932;DHT22;9598;50.954;3.112;2022-12-08T15:16:37;6.00;99.90
18932;DHT22;9598;50.954;3.112;2022-12-08T15:21:41;6.00;99.90
18932;DHT22;9598;50.954;3.112;2022-12-08T15:26:46;6.10;99.90
18932;DHT22;9598;50.954;3.112;2022-12-08T15:31:48;6.10;99.90
18932;DHT22;9598;50.954;3.112;2022-12-08T15:36:53;6.00;99.90
18932;DHT22;9598;50.954;3.112;2022-12-08T15:41:56;5.90;99.90
18932;DHT22;9598;50.954;3.112;2022-12-08T15:46:58;6.00;99.90
18932;DHT22;9598;50.954;3.112;2022-12-08T15:52:02;6.00;99.90
18932;DHT22;9598;50.954;3.112;2022-12-08T15:57:04;6.00;99.90
18932;DHT22;9598;50.954;3.112;2022-12-08T16:02:09;6.00;99.90
18932;DHT22;9598;50.954;3.112;2022-12-08T16:07:20;5.90;99.90
18932;DHT22;9598;50.954;3.112;2022-12-08T16:12:25;5.90;99.90
18932;DHT22;9598;50.954;3.112;2022-12-08T16:17:44;5.80;99.90
18932;DHT22;9598;50.954;3.112;2022-12-08T16:22:48;5.80;99.90
18932;DHT22;9598;50.954;3.112;2022-12-08T16:27:51;5.70;99.90
18932;DHT22;9598;50.954;3.112;2022-12-08T16:32:54;5.60;99.90
18932;DHT22;9598;50.954;3.112;2022-12-08T16:37:57;5.60;99.90
18932;DHT22;9598;50.954;3.112;2022-12-08T16:43:00;5.60;99.90
18932;DHT22;9598;50.954;3.112;2022-12-08T16:48:02;5.50;99.90
18932;DHT22;9598;50.954;3.112;2022-12-08T16:53:07;5.50;99.90
18932;DHT22;9598;50.954;3.112;2022-12-08T16:58:10;5.50;99.90
18932;DHT22;9598;50.954;3.112;2022-12-08T17:03:14;5.40;99.90
18932;DHT22;9598;50.954;3.112;2022-12-08T17:08:17;5.30;99.90
18932;DHT22;9598;50.954;3.112;2022-12-08T17:13:19;5.30;99.90
18932;DHT22;9598;50.954;3.112;2022-12-08T17:18:21;5.10;99.90
18932;DHT22;9598;50.954;3.112;2022-12-08T17:23:25;5.10;99.90
18932;DHT22;9598;50.954;3.112;2022-12-08T17:28:27;5.00;99.90
18932;DHT22;9598;50.954;3.112;2022-12-08T17:33:29;5.00;99.90
18932;DHT22;9598;50.954;3.112;2022-12-08T17:38:32;4.90;99.90
18932;DHT22;9598;50.954;3.112;2022-12-08T17:43:35;4.90;99.90
18932;DHT22;9598;50.954;3.112;2022-12-08T17:48:37;4.90;99.90
18932;DHT22;9598;50.954;3.112;2022-12-08T17:53:41;4.80;99.90
18932;DHT22;9598;50.954;3.112;2022-12-08T17:58:43;4.80;99.90
18932;DHT22;9598;50.954;3.112;2022-12-08T18:03:45;4.80;99.90
18932;DHT22;9598;50.954;3.112;2022-12-08T18:08:49;4.80;99.90
18932;DHT22;9598;50.954;3.112;2022-12-08T18:13:51;4.80;99.90
18932;DHT22;9598;50.954;3.112;2022-12-08T18:18:53;4.70;99.90
18932;DHT22;9598;50.954;3.112;2022-12-08T18:23:57;4.70;99.90
18932;DHT22;9598;50.954;3.112;2022-12-08T18:29:00;4.70;99.90
18932;DHT22;9598;50.954;3.112;2022-12-08T18:34:05;4.70;99.90
18932;DHT22;9598;50.954;3.112;2022-12-08T18:39:21;4.70;99.90
18932;DHT22;9598;50.954;3.112;2022-12-08T18:44:24;4.70;99.90
18932;DHT22;9598;50.954;3.112;2022-12-08T18:49:26;4.70;99.90
18932;DHT22;9598;50.954;3.112;2022-12-08T18:54:29;4.60;99.90
18932;DHT22;9598;50.954;3.112;2022-12-08T18:59:31;4.60;99.90
18932;DHT22;9598;50.954;3.112;2022-12-08T19:04:34;4.60;99.90
18932;DHT22;9598;50.954;3.112;2022-12-08T19:09:38;4.60;99.90
18932;DHT22;9598;50.954;3.112;2022-12-08T19:14:45;4.60;99.90
18932;DHT22;9598;50.954;3.112;2022-12-08T19:19:47;4.50;99.90
18932;DHT22;9598;50.954;3.112;2022-12-08T19:24:50;4.40;99.90
18932;DHT22;9598;50.954;3.112;2022-12-08T19:29:52;4.40;99.90
18932;DHT22;9598;50.954;3.112;2022-12-08T19:34:54;4.40;99.90
18932;DHT22;9598;50.954;3.112;2022-12-08T19:39:58;4.30;99.90
18932;DHT22;9598;50.954;3.112;2022-12-08T19:45:20;4.30;99.90
18932;DHT22;9598;50.954;3.112;2022-12-08T19:50:22;4.30;99.90
18932;DHT22;9598;50.954;3.112;2022-12-08T19:55:42;4.30;99.90
18932;DHT22;9598;50.954;3.112;2022-12-08T20:00:44;4.20;99.90
18932;DHT22;9598;50.954;3.112;2022-12-08T20:05:48;4.20;99.90
18932;DHT22;9598;50.954;3.112;2022-12-08T20:10:56;4.20;99.90
18932;DHT22;9598;50.954;3.112;2022-12-08T20:15:59;4.20;99.90
18932;DHT22;9598;50.954;3.112;2022-12-08T20:21:01;4.10;99.90
18932;DHT22;9598;50.954;3.112;2022-12-08T20:26:06;4.20;99.90
18932;DHT22;9598;50.954;3.112;2022-12-08T20:31:16;4.10;99.90
18932;DHT22;9598;50.954;3.112;2022-12-08T20:36:20;4.00;99.90
18932;DHT22;9598;50.954;3.112;2022-12-08T20:41:23;4.00;99.90
18932;DHT22;9598;50.954;3.112;2022-12-08T20:46:25;4.10;99.90
18932;DHT22;9598;50.954;3.112;2022-12-08T20:51:32;4.10;99.90
18932;DHT22;9598;50.954;3.112;2022-12-08T20:56:35;4.10;99.90
18932;DHT22;9598;50.954;3.112;2022-12-08T21:01:44;4.20;99.90
18932;DHT22;9598;50.954;3.112;2022-12-08T21:06:49;4.10;99.90
18932;DHT22;9598;50.954;3.112;2022-12-08T21:11:52;4.20;99.90
18932;DHT22;9598;50.954;3.112;2022-12-08T21:16:54;4.20;99.90
18932;DHT22;9598;50.954;3.112;2022-12-08T21:22:00;4.20;99.90
18932;DHT22;9598;50.954;3.112;2022-12-08T21:27:03;4.20;99.90
18932;DHT22;9598;50.954;3.112;2022-12-08T21:32:06;4.20;99.90
18932;DHT22;9598;50.954;3.112;2022-12-08T21:37:08;4.20;99.90
18932;DHT22;9598;50.954;3.112;2022-12-08T21:42:12;4.10;99.90
18932;DHT22;9598;50.954;3.112;2022-12-08T21:47:31;4.10;99.90
18932;DHT22;9598;50.954;3.112;2022-12-08T21:52:35;4.10;99.90
18932;DHT22;9598;50.954;3.112;2022-12-08T21:57:39;4.00;99.90
18932;DHT22;9598;50.954;3.112;2022-12-08T22:02:42;4.10;99.90
18932;DHT22;9598;50.954;3.112;2022-12-08T22:07:44;4.00;99.90
18932;DHT22;9598;50.954;3.112;2022-12-08T22:12:47;4.00;99.90
18932;DHT22;9598;50.954;3.112;2022-12-08T22:17:49;4.10;99.90
18932;DHT22;9598;50.954;3.112;2022-12-08T22:22:51;4.10;99.90
18932;DHT22;9598;50.954;3.112;2022-12-08T22:27:55;4.10;99.90
18932;DHT22;9598;50.954;3.112;2022-12-08T22:32:57;4.10;99.90
18932;DHT22;9598;50.954;3.112;2022-12-08T22:37:59;4.10;99.90
18932;DHT22;9598;50.954;3.112;2022-12-08T22:43:03;4.20;99.90
18932;DHT22;9598;50.954;3.112;2022-12-08T22:48:05;4.20;99.90
18932;DHT22;9598;50.954;3.112;2022-12-08T22:53:08;4.20;99.90
18932;DHT22;9598;50.954;3.112;2022-12-08T22:58:13;4.20;99.90
18932;DHT22;9598;50.954;3.112;2022-12-08T23:03:16;4.20;99.90
18932;DHT22;9598;50.954;3.112;2022-12-08T23:08:18;4.30;99.90
18932;DHT22;9598;50.954;3.112;2022-12-08T23:13:22;4.40;99.90
18932;DHT22;9598;50.954;3.112;2022-12-08T23:18:24;4.40;99.90
18932;DHT22;9598;50.954;3.112;2022-12-08T23:23:26;4.40;99.90
18932;DHT22;9598;50.954;3.112;2022-12-08T23:28:30;4.40;99.90
18932;DHT22;9598;50.954;3.112;2022-12-08T23:33:32;4.40;99.90
18932;DHT22;9598;50.954;3.112;2022-12-08T23:38:35;4.40;99.90
18932;DHT22;9598;50.954;3.112;2022-12-08T23:43:42;4.40;99.90
18932;DHT22;9598;50.954;3.112;2022-12-08T23:48:47;4.30;99.90
18932;DHT22;9598;50.954;3.112;2022-12-08T23:53:50;4.30;99.90
18932;DHT22;9598;50.954;3.112;2022-12-08T23:58:53;4.20;99.90
